NCAR-RAP Real-Time Weather Data

Output produced by METARs form (24 January 2022  22:39 UTC)
found at http://weather.rap.ucar.edu/surface/
 
KAMA 242153Z 02017G22KT 10SM CLR 14/M07 A2984 RMK AO2 PK WND 02026/2134 SLP095 T01441067
KAMA 242053Z 04017G26KT 10SM CLR 15/M06 A2982 RMK AO2 PK WND 04026/2050 SLP087 T01501061 56014
KAMA 241953Z 03019G26KT 10SM CLR 14/M05 A2983 RMK AO2 PK WND 03026/1947 SLP089 T01441050
KAMA 241853Z 04018G27KT 10SM CLR 13/M04 A2985 RMK AO2 PK WND 03028/1820 SLP101 T01281044
KAMA 241753Z 36012KT 10SM CLR 10/M06 A2987 RMK AO2 SLP109 T01001056 10100 21050 50001
KAMA 241653Z 01010KT 10SM CLR 08/M06 A2988 RMK AO2 SLP116 T00781061
KAMA 241553Z 32011KT 10SM CLR 04/M07 A2987 RMK AO2 SLP117 T00391072
KAMA 241453Z 32005KT 10SM CLR 01/M06 A2986 RMK AO2 SLP114 T00111061 53009
KAMA 241353Z 23009KT 10SM CLR M04/M07 A2984 RMK AO2 SLP112 T10391072